AirNav   Air Wisconsin Up To $57,000 Bonus
 
 614 users online  

64FD St Marys Hospital Heliport
West Palm Beach, Florida, USA

GOING TO WEST PALM BEACH?


FAA INFORMATION EFFECTIVE 02 JANUARY 2020

Location

FAA Identifier: 64FD
Lat/Long: 26-45-23.1800N 080-03-40.5600W
26-45.386333N 080-03.676000W
26.7564389,-80.0612667
(estimated)
Elevation: 13 ft. / 4 m (estimated)
Variation: 07W (2015)
Time zone: UTC -5 (UTC -4 during Daylight Saving Time)
Zip code: 33404

Heliport Operations

Heliport use: Private use, MEDICAL.
Activation date: 08/1972
Control tower: no
ARTCC: MIAMI CENTER
FSS: MIAMI FLIGHT SERVICE STATION
Attendance: CONTINUOUS
Wind indicator: lighted
Segmented circle: no
Beacon: white-green-yellow (heliport)
RWY BCN 24 HRS.

Heliport Communications

UNICOM: 122.8
WX ASOS at PBI (5 nm SW): 123.75 (561-683-2548)
WX AWOS-3PT at LNA (10 nm S): 119.925 (561-964-0308)
WX AWOS-3 at F45 (10 nm NW): 119.975 (561-630-6932)

Nearby radio navigation aids

VOR radial/distance  VOR name  Freq  Var
PBIr019/4.8PALM BEACH VORTAC115.7003W
PHKr093/33.8PAHOKEE VOR/DME115.4000E

 
NDB name  Hdg/Dist  Freq  Var  ID
UNITED127/17.340505WUTX ..- - -..-

Heliport Services

Airframe service: NONE
Powerplant service: NONE

Runway Information

Helipad H1

Dimensions: 44 x 44 ft. / 13 x 13 m
Surface: concrete
PAD IS CIRCULAR.
Runway edge lights: PERI
FOR PERIMETER LGTS CALL 407-844-6300.
Latitude: 26-45.386333N
Longitude: 080-03.676000W
Elevation: 13.0 ft.
Traffic pattern: leftleft

Heliport Ownership and Management from official FAA records

Ownership: Privately-owned
Owner: ST MARY'S HOSPITAL INC
901 45TH STREET
WEST PALM BEACH, FL 33407
Phone 561-882-2760
Manager: GREG DALTON
ST MARY'S HOSPITAL, 901 45TH ST
WEST PALM BEACH, FL 33407
Phone 561-882-2760

Additional Remarks

A58-H1 HELIPORT SURROUNDED WITH 4 FT CHAINLINK FENCE MKD WITH STD HOSPITAL HELIPORT MARKINGS.
FOR CD CTC PALM BEACH APCH AT 561-275-1430

Instrument Procedures

There are no published instrument procedures at 64FD.

Some nearby airports with instrument procedures:

KPBI - Palm Beach International Airport (5 nm SW)
KLNA - Palm Beach County Park Airport (10 nm S)
F45 - North Palm Beach County General Aviation Airport (10 nm NW)
06FA - William P Gwinn Airport (17 nm NW)
KBCT - Boca Raton Airport (23 nm S)
 
Loc | Ops | Rwys | IFR | FBO | Links
Com | Nav | Svcs | Stats | Notes


 
Area around 64FD (St Marys Hospital Heliport)
 
Road maps at: MapQuest Bing Google
 
Aerial photo
No photo
 
Sectional chart

 
Airport distance calculator
Flying to St Marys Hospital Heliport? Find the distance to fly.

From to 64FD

Sunrise and sunset
Times for 21-Jan-2020
 Local
(UTC-5)
 Zulu
(UTC)
Morning civil twilight06:4611:46
Sunrise07:1112:11
Sunset17:5322:53
Evening civil twilight18:1723:17

Current date and time
Zulu (UTC)  21-Jan-2020 11:47:36
Local (UTC-5)  21-Jan-2020 06:47:36
 
METAR
KPBI 
5nm SW 
211053Z 32012KT 10SM CLR 12/08 A3009 RMK AO2 SLP188 T01170083
KLNA 
10nm S 
211135Z AUTO 31009KT 210V350 12/10 A3010 RMK AO2 T01180095 PWINO PNO
KF45 
10nm NW 
211130Z AUTO 34009KT 10SM SCT025 10/08 A3013 RMK AO2 TSNO
TAF
KPBI 
5nm SW 
210859Z 2109/2206 33011KT P6SM FEW250 FM211400 33015G24KT P6SM FEW050 SCT250
NOTAMs
Click for the latest NOTAMs
NOTAMs are issued by the DoD/FAA and will open in a separate window not controlled by AirNav.

 

 
 

Would you like to see your business listed on this page?

 If your business provides an interesting product or service to pilots, flight crews, aircraft, or users of the St Marys Hospital Heliport, you should consider listing it here.  To start the listing process, click on the button below
 
Add a business
 

Other Pages about St Marys Hospital Heliport

Update a link
 
Copyright © AirNav, LLC. All rights reserved. Privacy Policy  Contact